createdAt,value
2022-11-23T00:01:37.793Z,23.10
2022-11-23T00:04:12.158Z,24.67
2022-11-23T00:06:40.469Z,26.90
2022-11-23T00:09:10.960Z,26.20
2022-11-23T00:11:38.341Z,22.77
2022-11-23T00:14:05.620Z,24.40
2022-11-23T00:16:33.039Z,25.90
2022-11-23T00:19:02.810Z,21.90
2022-11-23T00:21:32.638Z,22.40
2022-11-23T00:24:00.089Z,24.43
2022-11-23T00:26:27.949Z,24.90
2022-11-23T00:28:55.964Z,24.60
2022-11-23T00:31:25.967Z,24.57
2022-11-23T00:33:56.355Z,24.23
2022-11-23T00:36:26.017Z,25.43
2022-11-23T00:38:58.886Z,23.77
2022-11-23T00:41:34.385Z,23.70
2022-11-23T00:44:01.773Z,27.10
2022-11-23T00:46:32.297Z,24.80
2022-11-23T00:49:00.613Z,24.50
2022-11-23T00:51:43.076Z,24.00
2022-11-23T00:54:10.824Z,25.53
2022-11-23T00:56:38.036Z,24.17
2022-11-23T00:59:08.876Z,25.53
2022-11-23T01:01:37.860Z,24.17
2022-11-23T01:04:08.458Z,26.70
2022-11-23T01:06:40.232Z,23.30
2022-11-23T01:09:18.185Z,23.63
2022-11-23T01:11:48.550Z,24.93
2022-11-23T01:14:18.186Z,24.47
2022-11-23T01:16:45.463Z,23.90
2022-11-23T01:19:16.224Z,22.70
2022-11-23T01:21:44.515Z,24.93
2022-11-23T01:24:21.865Z,23.77
2022-11-23T01:26:56.100Z,22.93
2022-11-23T01:29:26.329Z,22.30
2022-11-23T01:31:53.481Z,23.57
2022-11-23T01:34:21.022Z,24.60
2022-11-23T01:36:48.437Z,23.95
2022-11-23T01:39:16.177Z,24.00
2022-11-23T01:41:44.890Z,23.33
2022-11-23T01:44:33.881Z,22.30
2022-11-23T01:47:07.413Z,24.90
2022-11-23T01:49:50.128Z,23.27
2022-11-23T01:52:25.313Z,23.90
2022-11-23T01:54:56.514Z,22.87
2022-11-23T01:57:34.746Z,23.95
2022-11-23T02:00:02.372Z,22.33
2022-11-23T02:02:32.530Z,22.83
2022-11-23T02:05:05.168Z,23.90
2022-11-23T02:07:33.842Z,22.00
2022-11-23T02:10:01.702Z,23.23
2022-11-23T02:12:28.874Z,21.60
2022-11-23T02:14:56.848Z,22.97
2022-11-23T02:17:24.525Z,21.27
2022-11-23T02:19:57.810Z,23.80
2022-11-23T02:22:44.981Z,22.97
2022-11-23T02:25:39.880Z,22.20
2022-11-23T02:28:09.875Z,20.80
2022-11-23T02:30:45.784Z,21.60
2022-11-23T02:33:13.589Z,20.93
2022-11-23T02:36:01.266Z,20.07
2022-11-23T02:38:32.902Z,23.25
2022-11-23T02:41:00.563Z,22.50
2022-11-23T02:43:28.314Z,22.40
2022-11-23T02:45:58.880Z,21.80
2022-11-23T02:48:27.067Z,22.70
2022-11-23T02:50:54.245Z,21.60
2022-11-23T02:53:21.538Z,22.23
2022-11-23T02:55:58.119Z,23.73
2022-11-23T02:58:31.211Z,21.63
2022-11-23T03:00:58.985Z,21.17
2022-11-23T03:03:26.917Z,21.33
2022-11-23T03:05:56.812Z,21.20
2022-11-23T03:08:24.083Z,24.43
2022-11-23T03:10:51.483Z,21.83
2022-11-23T03:13:19.210Z,20.37
2022-11-23T03:15:46.362Z,22.30
2022-11-23T03:18:16.422Z,20.87
2022-11-23T03:20:49.784Z,24.07
2022-11-23T03:23:17.143Z,20.53
2022-11-23T03:25:44.496Z,22.40
2022-11-23T03:28:11.421Z,21.73
2022-11-23T03:30:38.582Z,23.00
2022-11-23T03:33:08.995Z,21.43
2022-11-23T03:35:41.825Z,21.00
2022-11-23T03:38:09.345Z,21.50
2022-11-23T03:40:37.313Z,23.23
2022-11-23T03:43:05.091Z,21.00
2022-11-23T03:45:33.334Z,21.70
2022-11-23T03:48:01.229Z,22.40
2022-11-23T03:50:29.948Z,22.73
2022-11-23T03:53:01.192Z,18.50
2022-11-23T03:55:29.217Z,23.30
2022-11-23T03:57:59.837Z,22.40
2022-11-23T04:00:33.687Z,23.15
2022-11-23T04:03:01.506Z,20.50
2022-11-23T04:05:34.629Z,23.57
2022-11-23T04:08:05.664Z,22.45
2022-11-23T04:10:36.406Z,21.20
2022-11-23T04:13:06.652Z,22.40
2022-11-23T04:15:37.458Z,21.57
2022-11-23T04:18:05.395Z,22.00
2022-11-23T04:20:35.439Z,23.83
2022-11-23T04:23:02.966Z,22.30
2022-11-23T04:25:38.975Z,20.43
2022-11-23T04:31:03.657Z,21.97
2022-11-23T04:33:47.480Z,23.77
2022-11-23T04:36:15.014Z,22.60
2022-11-23T04:38:42.684Z,23.20
2022-11-23T04:41:10.860Z,20.57
2022-11-23T04:43:41.514Z,20.80
2022-11-23T04:46:12.476Z,20.65
2022-11-23T04:48:42.494Z,20.80
2022-11-23T04:51:13.091Z,20.75
2022-11-23T04:53:41.050Z,21.80
2022-11-23T04:56:12.109Z,22.57
2022-11-23T04:58:44.880Z,22.27
2022-11-23T05:01:12.683Z,20.47
2022-11-23T05:03:39.952Z,21.13
2022-11-23T05:06:08.281Z,22.83
2022-11-23T05:08:42.071Z,21.80
2022-11-23T05:11:10.153Z,23.37
2022-11-23T05:13:39.861Z,21.30
2022-11-23T05:16:10.287Z,21.97
2022-11-23T05:18:37.794Z,23.53
2022-11-23T05:21:08.999Z,19.33
2022-11-23T05:23:36.239Z,21.60
2022-11-23T05:26:03.949Z,20.80
2022-11-23T05:28:40.521Z,22.90
2022-11-23T05:31:11.698Z,20.97
2022-11-23T05:33:39.799Z,18.80
2022-11-23T05:36:08.894Z,19.20
2022-11-23T05:38:36.975Z,20.67
2022-11-23T05:41:10.440Z,20.53
2022-11-23T05:43:40.421Z,18.97
2022-11-23T05:46:13.463Z,19.07
2022-11-23T05:48:59.243Z,21.30
2022-11-23T05:51:32.534Z,20.50
2022-11-23T05:54:03.070Z,19.67
2022-11-23T05:56:35.815Z,21.70
2022-11-23T05:59:08.399Z,20.53
2022-11-23T06:01:36.300Z,19.23
2022-11-23T06:04:07.298Z,20.25
2022-11-23T06:06:38.614Z,19.10
2022-11-23T06:09:09.831Z,19.70
2022-11-23T06:11:38.199Z,19.10
2022-11-23T06:14:09.977Z,19.40
2022-11-23T06:16:43.172Z,20.03
2022-11-23T06:19:22.688Z,18.80
2022-11-23T06:21:50.690Z,18.60
2022-11-23T06:24:18.466Z,19.50
2022-11-23T06:26:45.443Z,20.27
2022-11-23T06:29:13.193Z,20.13
2022-11-23T06:31:40.930Z,17.60
2022-11-23T06:34:20.161Z,19.95
2022-11-23T06:36:51.483Z,18.55
2022-11-23T06:39:19.246Z,19.85
2022-11-23T06:44:37.704Z,19.40
2022-11-23T06:47:05.444Z,20.10
2022-11-23T06:49:35.891Z,20.73
2022-11-23T06:52:06.641Z,19.95
2022-11-23T06:54:37.874Z,20.80
2022-11-23T06:57:08.712Z,20.20
2022-11-23T06:59:41.940Z,19.15
2022-11-23T07:02:18.587Z,18.90
2022-11-23T07:04:46.233Z,20.20
2022-11-23T07:07:16.033Z,19.20
2022-11-23T07:09:48.088Z,20.53
2022-11-23T07:12:15.638Z,20.17
2022-11-23T07:14:45.557Z,20.60
2022-11-23T07:17:18.628Z,19.23
2022-11-23T07:19:46.408Z,20.20
2022-11-23T07:22:16.324Z,19.80
2022-11-23T07:24:46.930Z,17.80
2022-11-23T07:27:20.816Z,18.70
2022-11-23T07:29:51.176Z,20.23
2022-11-23T07:32:22.398Z,18.63
2022-11-23T07:34:50.236Z,20.07
2022-11-23T07:37:25.383Z,17.30
2022-11-23T07:39:58.142Z,20.27
2022-11-23T07:42:38.118Z,18.80
2022-11-23T07:45:12.287Z,19.30
2022-11-23T07:47:40.661Z,19.27
2022-11-23T07:50:13.391Z,18.60
2022-11-23T07:52:49.069Z,20.10
2022-11-23T07:55:20.133Z,19.60
2022-11-23T07:57:59.785Z,17.95
2022-11-23T08:00:38.326Z,18.40
2022-11-23T08:03:27.337Z,19.10
2022-11-23T08:06:08.955Z,17.37
2022-11-23T08:08:43.582Z,18.40
2022-11-23T08:11:23.839Z,15.93
2022-11-23T08:13:57.952Z,17.60
2022-11-23T08:16:31.247Z,19.77
2022-11-23T08:19:02.785Z,18.90
2022-11-23T08:21:30.761Z,18.00
2022-11-23T08:23:58.323Z,18.60
2022-11-23T08:26:26.522Z,20.10
2022-11-23T08:28:54.307Z,17.60
2022-11-23T08:31:30.984Z,19.63
2022-11-23T08:34:03.521Z,17.23
2022-11-23T08:36:35.406Z,19.17
2022-11-23T08:39:11.706Z,17.80
2022-11-23T08:41:39.486Z,18.50
2022-11-23T08:44:11.413Z,18.43
2022-11-23T08:46:40.800Z,18.33
2022-11-23T08:49:29.044Z,15.83
2022-11-23T08:52:00.552Z,19.20
2022-11-23T08:54:34.579Z,18.90
2022-11-23T08:57:05.822Z,16.87
2022-11-23T08:59:34.482Z,18.67
2022-11-23T09:02:08.148Z,19.20
2022-11-23T09:08:16.903Z,18.13
2022-11-23T09:10:53.753Z,16.77
2022-11-23T09:13:25.535Z,18.30
2022-11-23T09:16:23.771Z,17.10
2022-11-23T09:18:55.784Z,18.30
2022-11-23T09:21:23.352Z,17.30
2022-11-23T09:23:50.932Z,19.03
2022-11-23T09:26:21.183Z,17.93
2022-11-23T09:28:49.000Z,17.37
2022-11-23T09:31:19.845Z,17.73
2022-11-23T09:33:47.509Z,16.83
2022-11-23T09:36:22.184Z,17.20
2022-11-23T09:38:59.523Z,15.20
2022-11-23T09:42:04.428Z,15.87
2022-11-23T09:45:01.468Z,15.10
2022-11-23T09:48:05.017Z,17.63
2022-11-23T09:52:08.731Z,16.60
2022-11-23T09:54:50.312Z,16.07
2022-11-23T09:57:54.787Z,15.00
2022-11-23T10:00:27.750Z,15.67
2022-11-23T10:02:55.612Z,16.33
2022-11-23T10:05:38.824Z,14.33
2022-11-23T10:08:46.486Z,15.65
2022-11-23T10:11:55.791Z,16.70
2022-11-23T10:19:31.876Z,14.10
2022-11-23T10:26:16.331Z,13.80
2022-11-23T10:28:46.537Z,13.30
2022-11-23T10:31:17.649Z,13.00
2022-11-23T10:34:12.582Z,14.40
2022-11-23T10:36:45.970Z,14.63
2022-11-23T10:39:28.762Z,15.50
2022-11-23T10:42:03.371Z,14.93
2022-11-23T10:44:37.609Z,16.97
2022-11-23T10:47:17.175Z,15.57
2022-11-23T10:50:44.250Z,14.33
2022-11-23T10:53:31.170Z,15.13
2022-11-23T10:56:03.796Z,15.40
2022-11-23T10:58:35.426Z,15.00
2022-11-23T11:01:18.053Z,15.20
2022-11-23T11:04:59.998Z,14.47
2022-11-23T11:06:46.184Z,15.60
2022-11-23T11:09:24.822Z,16.47
2022-11-23T11:16:21.386Z,15.20
2022-11-23T11:18:48.895Z,17.60
2022-11-23T11:21:35.293Z,15.67
2022-11-23T11:24:21.537Z,20.17
2022-11-23T11:27:04.782Z,16.77
2022-11-23T11:29:44.542Z,15.53
2022-11-23T11:33:13.966Z,14.17
2022-11-23T11:35:53.162Z,15.77
2022-11-23T11:38:38.762Z,16.43
2022-11-23T11:41:51.290Z,29.50
2022-11-23T11:44:29.515Z,16.90
2022-11-23T11:47:18.446Z,14.43
2022-11-23T11:50:03.717Z,14.17
2022-11-23T11:52:45.925Z,15.70
2022-11-23T11:55:28.366Z,14.03
2022-11-23T11:58:26.214Z,14.80
2022-11-23T12:01:48.380Z,14.47
2022-11-23T12:05:03.053Z,13.93
2022-11-23T12:08:02.803Z,13.60
2022-11-23T12:11:41.529Z,16.10
2022-11-23T12:14:31.389Z,15.17
2022-11-23T12:17:34.032Z,14.47
2022-11-23T12:20:32.685Z,13.40
2022-11-23T12:23:10.623Z,13.50
2022-11-23T12:26:16.765Z,14.37
2022-11-23T12:29:03.208Z,12.67
2022-11-23T12:31:51.999Z,14.43
2022-11-23T12:34:34.066Z,15.27
2022-11-23T12:37:19.278Z,13.70
2022-11-23T12:40:10.913Z,14.77
2022-11-23T12:42:52.731Z,13.87
2022-11-23T12:45:57.218Z,13.63
2022-11-23T12:48:51.404Z,11.87
2022-11-23T12:51:56.102Z,13.70
2022-11-23T12:54:41.151Z,12.07
2022-11-23T12:57:38.397Z,13.40
2022-11-23T13:00:22.885Z,14.83
2022-11-23T13:02:58.142Z,14.07
2022-11-23T13:06:11.727Z,13.90
2022-11-23T13:09:16.393Z,14.30
2022-11-23T13:12:30.090Z,12.67
2022-11-23T13:15:39.987Z,14.83
2022-11-23T13:18:43.118Z,13.70
2022-11-23T13:21:17.796Z,14.65
2022-11-23T13:23:44.964Z,14.10
2022-11-23T13:26:28.219Z,14.57
2022-11-23T13:28:58.364Z,15.03
2022-11-23T13:31:31.129Z,13.93
2022-11-23T13:34:02.571Z,15.33
2022-11-23T13:37:11.071Z,12.87
2022-11-23T13:39:56.468Z,12.63
2022-11-23T13:42:26.691Z,13.27
2022-11-23T13:45:26.604Z,13.37
2022-11-23T13:48:49.053Z,15.03
2022-11-23T13:51:05.781Z,14.17
2022-11-23T13:53:42.251Z,13.40
2022-11-23T13:56:34.371Z,12.00
2022-11-23T13:59:22.543Z,13.40
2022-11-23T14:02:02.550Z,12.60
2022-11-23T14:04:35.821Z,11.33
2022-11-23T14:07:09.023Z,12.80
2022-11-23T14:09:57.622Z,13.53
2022-11-23T14:12:57.020Z,12.67
2022-11-23T14:15:33.378Z,12.67
2022-11-23T14:18:40.169Z,13.77
2022-11-23T14:21:14.521Z,12.87
2022-11-23T14:24:18.829Z,13.10
2022-11-23T14:27:45.885Z,13.17
2022-11-23T14:30:42.520Z,12.17
2022-11-23T14:33:29.557Z,13.70
2022-11-23T14:36:30.648Z,12.67
2022-11-23T14:39:32.663Z,12.90
2022-11-23T14:42:04.201Z,12.40
2022-11-23T14:44:38.408Z,12.80
2022-11-23T14:47:11.377Z,12.20
2022-11-23T14:49:50.477Z,11.77
2022-11-23T14:52:22.164Z,12.53
2022-11-23T14:54:52.064Z,12.50
2022-11-23T14:57:23.289Z,12.90
2022-11-23T14:59:58.830Z,13.00
2022-11-23T15:02:40.307Z,11.73
2022-11-23T15:05:51.669Z,12.80
2022-11-23T15:08:35.684Z,12.03
2022-11-23T15:11:15.276Z,14.40
2022-11-23T15:13:52.162Z,11.90
2022-11-23T15:16:22.255Z,12.33
2022-11-23T15:18:49.943Z,11.73
2022-11-23T15:21:25.343Z,12.20
2022-11-23T15:23:57.294Z,12.30
2022-11-23T15:26:47.445Z,12.10
2022-11-23T15:29:34.026Z,12.07
2022-11-23T15:34:51.979Z,14.03
2022-11-23T15:37:19.086Z,12.47
2022-11-23T15:39:47.103Z,13.37
2022-11-23T15:42:20.483Z,12.27
2022-11-23T15:44:50.877Z,13.13
2022-11-23T15:47:28.375Z,12.30
2022-11-23T15:50:09.713Z,14.30
2022-11-23T15:52:38.276Z,12.23
2022-11-23T15:55:10.153Z,13.50
2022-11-23T15:57:39.537Z,13.63
2022-11-23T16:00:09.557Z,11.97
2022-11-23T16:02:36.988Z,12.00
2022-11-23T16:05:25.330Z,12.70
2022-11-23T16:07:58.027Z,13.00
2022-11-23T16:10:27.257Z,12.57
2022-11-23T16:13:00.204Z,12.03
2022-11-23T16:15:40.651Z,13.50
2022-11-23T16:18:28.042Z,13.50
2022-11-23T16:21:01.494Z,13.20
2022-11-23T16:23:54.604Z,13.07
2022-11-23T16:26:31.437Z,13.73
2022-11-23T16:28:59.912Z,12.63
2022-11-23T16:31:29.267Z,14.40
2022-11-23T16:33:56.935Z,13.07
2022-11-23T16:36:27.510Z,12.30
2022-11-23T16:38:57.630Z,13.20
2022-11-23T16:41:26.594Z,15.90
2022-11-23T16:43:54.173Z,17.80
2022-11-23T16:46:21.628Z,15.60
2022-11-23T16:48:48.613Z,14.10
2022-11-23T16:51:15.888Z,15.17
2022-11-23T16:54:12.480Z,12.10
2022-11-23T16:56:32.537Z,14.70
2022-11-23T16:59:00.269Z,15.20
2022-11-23T17:01:29.962Z,16.40
2022-11-23T17:03:56.987Z,13.23
2022-11-23T17:06:24.010Z,14.93
2022-11-23T17:09:00.550Z,15.00
2022-11-23T17:11:30.240Z,15.37
2022-11-23T17:13:58.360Z,15.53
2022-11-23T17:16:26.910Z,17.20
2022-11-23T17:18:53.979Z,17.33
2022-11-23T17:21:20.954Z,16.73
2022-11-23T17:23:48.540Z,15.80
2022-11-23T17:26:29.173Z,16.10
2022-11-23T17:28:56.822Z,17.40
2022-11-23T17:31:23.711Z,17.07
2022-11-23T17:33:50.730Z,17.87
2022-11-23T17:36:17.979Z,17.63
2022-11-23T17:38:47.191Z,17.90
2022-11-23T17:41:14.554Z,20.00
2022-11-23T17:43:41.528Z,18.50
2022-11-23T17:46:31.258Z,18.63
2022-11-23T17:49:02.275Z,20.30
2022-11-23T17:51:29.874Z,19.07
2022-11-23T17:53:56.939Z,19.53
2022-11-23T17:56:25.790Z,18.60
2022-11-23T17:58:53.088Z,18.70
2022-11-23T18:01:22.208Z,19.30
2022-11-23T18:03:49.824Z,19.63
2022-11-23T18:06:21.016Z,18.70
2022-11-23T18:08:49.860Z,19.63
2022-11-23T18:11:17.975Z,20.20
2022-11-23T18:13:44.962Z,21.00
2022-11-23T18:16:12.019Z,19.20
2022-11-23T18:18:39.318Z,20.50
2022-11-23T18:21:06.929Z,20.30
2022-11-23T18:23:34.109Z,20.70
2022-11-23T18:26:03.239Z,20.10
2022-11-23T18:28:30.697Z,23.13
2022-11-23T18:30:57.675Z,20.20
2022-11-23T18:33:24.609Z,23.10
2022-11-23T18:35:51.469Z,21.43
2022-11-23T18:38:18.639Z,24.40
2022-11-23T18:40:45.574Z,21.80
2022-11-23T18:43:12.461Z,22.50
2022-11-23T18:45:39.404Z,22.67
2022-11-23T18:48:07.888Z,20.40
2022-11-23T18:50:36.281Z,22.40
2022-11-23T18:53:03.491Z,21.70
2022-11-23T18:55:30.381Z,21.10
2022-11-23T18:57:57.206Z,21.90
2022-11-23T19:00:25.169Z,21.80
2022-11-23T19:03:00.426Z,23.60
2022-11-23T19:05:31.178Z,22.80
2022-11-23T19:08:04.424Z,22.50
2022-11-23T19:10:37.127Z,22.70
2022-11-23T19:13:05.943Z,22.10
2022-11-23T19:15:34.011Z,22.23
2022-11-23T19:18:02.372Z,22.30
2022-11-23T19:20:29.643Z,23.47
2022-11-23T19:22:56.618Z,22.10
2022-11-23T19:25:23.644Z,21.67
2022-11-23T19:27:51.432Z,22.27
2022-11-23T19:30:18.847Z,24.20
2022-11-23T19:32:45.972Z,22.67
2022-11-23T19:35:13.043Z,24.10
2022-11-23T19:37:40.219Z,25.23
2022-11-23T19:40:08.247Z,26.13
2022-11-23T19:42:35.889Z,22.30
2022-11-23T19:45:05.474Z,25.00
2022-11-23T19:47:32.437Z,24.33
2022-11-23T19:49:59.494Z,26.57
2022-11-23T19:52:47.974Z,24.87
2022-11-23T19:55:16.903Z,24.87
2022-11-23T19:57:43.732Z,24.33
2022-11-23T20:00:11.470Z,25.33
2022-11-23T20:02:38.324Z,27.30
2022-11-23T20:05:05.862Z,26.90
2022-11-23T20:07:32.893Z,25.33
2022-11-23T20:09:59.757Z,26.63
2022-11-23T20:12:26.613Z,24.63
2022-11-23T20:14:53.699Z,26.60
2022-11-23T20:17:20.585Z,26.30
2022-11-23T20:19:47.678Z,27.13
2022-11-23T20:22:14.534Z,26.90
2022-11-23T20:24:41.365Z,27.63
2022-11-23T20:27:08.277Z,27.70
2022-11-23T20:29:35.652Z,28.70
2022-11-23T20:32:02.872Z,26.03
2022-11-23T20:34:29.754Z,26.57
2022-11-23T20:36:56.684Z,27.70
2022-11-23T20:39:23.578Z,24.93
2022-11-23T20:41:50.592Z,28.90
2022-11-23T20:44:17.890Z,26.97
2022-11-23T20:47:01.109Z,27.17
2022-11-23T20:49:29.815Z,26.80
2022-11-23T20:51:56.784Z,26.50
2022-11-23T20:54:23.700Z,26.37
2022-11-23T20:56:50.745Z,27.40
2022-11-23T20:59:19.604Z,27.67
2022-11-23T21:01:46.582Z,27.13
2022-11-23T21:04:13.594Z,27.33
2022-11-23T21:06:40.687Z,28.53
2022-11-23T21:09:11.415Z,28.10
2022-11-23T21:11:56.904Z,29.40
2022-11-23T21:14:28.194Z,32.73
2022-11-23T21:16:58.703Z,33.20
2022-11-23T21:19:39.153Z,29.17
2022-11-23T21:22:14.735Z,31.03
2022-11-23T21:24:42.125Z,28.70
2022-11-23T21:27:13.211Z,29.47
2022-11-23T21:29:40.356Z,28.17
2022-11-23T21:32:07.316Z,28.60
2022-11-23T21:34:34.592Z,28.83
2022-11-23T21:37:01.735Z,27.47
2022-11-23T21:39:31.243Z,27.10
2022-11-23T21:41:58.245Z,27.67
2022-11-23T21:44:25.145Z,28.90
2022-11-23T21:46:52.177Z,29.67
2022-11-23T21:49:19.316Z,28.53
2022-11-23T21:51:46.676Z,28.23
2022-11-23T21:54:15.878Z,29.37
2022-11-23T21:56:45.679Z,29.33
2022-11-23T21:59:13.369Z,30.50
2022-11-23T22:01:41.001Z,27.53
2022-11-23T22:04:15.173Z,30.53
2022-11-23T22:06:44.436Z,31.10
2022-11-23T22:09:12.607Z,27.77
2022-11-23T22:11:42.221Z,27.70
2022-11-23T22:14:14.743Z,30.90
2022-11-23T22:16:49.811Z,27.73
2022-11-23T22:19:17.839Z,29.90
2022-11-23T22:21:45.920Z,29.43
2022-11-23T22:24:15.871Z,29.70
2022-11-23T22:26:43.809Z,31.00
2022-11-23T22:29:11.720Z,30.50
2022-11-23T22:31:39.060Z,29.77
2022-11-23T22:34:10.232Z,29.00
2022-11-23T22:36:37.105Z,28.27
2022-11-23T22:39:06.470Z,29.20
2022-11-23T22:41:36.643Z,31.20
2022-11-23T22:44:06.835Z,29.20
2022-11-23T22:46:33.905Z,31.97
2022-11-23T22:49:02.147Z,29.93
2022-11-23T22:51:29.878Z,32.80
2022-11-23T22:53:59.556Z,33.43
2022-11-23T22:56:27.946Z,33.17
2022-11-23T22:58:55.086Z,35.23
2022-11-23T23:01:26.451Z,32.87
2022-11-23T23:03:55.966Z,31.60
2022-11-23T23:06:26.265Z,33.53
2022-11-23T23:08:56.024Z,32.50
2022-11-23T23:11:24.336Z,32.93
2022-11-23T23:13:51.828Z,29.90
2022-11-23T23:16:19.320Z,33.53
2022-11-23T23:18:46.416Z,34.80
2022-11-23T23:21:21.549Z,33.70
2022-11-23T23:23:51.364Z,32.93
2022-11-23T23:26:21.098Z,34.63
2022-11-23T23:28:48.621Z,32.50
2022-11-23T23:31:17.395Z,35.07
2022-11-23T23:33:45.741Z,33.97
2022-11-23T23:36:19.783Z,33.30
2022-11-23T23:38:46.848Z,33.80
2022-11-23T23:41:14.671Z,34.70
2022-11-23T23:43:42.634Z,34.27
2022-11-23T23:46:12.646Z,35.70
2022-11-23T23:48:41.147Z,33.40
2022-11-23T23:51:13.126Z,34.63
2022-11-23T23:53:40.699Z,36.97
2022-11-23T23:56:14.096Z,35.27
2022-11-23T23:58:41.481Z,33.47
